Time;durP1;ratioP1;P1;durP2;ratioP2;P2;SDS_P1;SDS_P2;PMS_P1;PMS_P2;Temp;Humidity;BMP_temperature;BMP_pressure;BME280_temperature;BME280_humidity;BME280_pressure;Samples;Min_cycle;Max_cycle;Signal;HPM_P1;HPM_P2
2022/01/26 00:05:53;;;;;;;55.22;19.52;;;;;;;0.61;100.00;102081.63;20896788;28;20498;-71
2022/01/26 00:15:56;;;;;;;55.20;20.15;;;;;;;0.53;100.00;102067.50;20899689;28;20091;-71
2022/01/26 00:27:02;;;;;;;63.45;20.25;;;;;;;0.61;100.00;102066.16;20899084;28;20048;-71
2022/01/26 00:46:48;;;;;;;66.82;23.50;;;;;;;0.68;100.00;102057.97;20912381;28;20095;-70
2022/01/26 00:56:49;;;;;;;86.90;29.17;;;;;;;0.64;100.00;102050.00;20914097;28;20061;-70
2022/01/26 01:06:57;;;;;;;75.32;25.70;;;;;;;0.68;100.00;102051.94;20914760;28;20048;-71
2022/01/26 01:17:02;;;;;;;82.30;27.70;;;;;;;0.66;100.00;102064.72;20908283;28;20052;-71
2022/01/26 01:37:09;;;;;;;57.92;20.17;;;;;;;0.64;100.00;102066.34;20911030;28;20463;-71
2022/01/26 01:47:10;;;;;;;45.92;17.10;;;;;;;0.51;100.00;102066.50;20910507;28;20566;-71
2022/01/26 01:57:12;;;;;;;49.35;18.25;;;;;;;0.57;100.00;102073.66;20909856;28;20049;-71
2022/01/26 02:07:14;;;;;;;51.85;18.15;;;;;;;0.54;100.00;102070.94;20908641;28;20048;-70
2022/01/26 03:09:01;;;;;;;51.58;19.60;;;;;;;0.21;100.00;102043.50;20903640;28;20045;-69
2022/01/26 03:39:10;;;;;;;58.35;21.05;;;;;;;0.36;100.00;102043.41;20901211;28;20048;-71
2022/01/26 03:49:12;;;;;;;57.80;20.63;;;;;;;0.45;100.00;102059.34;20898319;28;20119;-71
2022/01/26 03:59:14;;;;;;;68.75;21.55;;;;;;;0.46;100.00;102047.34;20900797;28;20453;-70
2022/01/26 04:09:17;;;;;;;63.08;22.30;;;;;;;0.47;100.00;102047.41;20898931;28;20453;-71
2022/01/26 04:19:20;;;;;;;61.87;20.27;;;;;;;0.46;100.00;102042.19;20896943;28;20060;-71
2022/01/26 04:29:27;;;;;;;57.50;20.33;;;;;;;0.43;100.00;102054.91;20899316;28;20081;-71
2022/01/26 04:39:35;;;;;;;52.30;18.65;;;;;;;0.46;100.00;102055.97;20898986;28;20469;-71
2022/01/26 04:49:37;;;;;;;55.33;19.60;;;;;;;0.39;100.00;102047.84;20898993;28;20049;-70
2022/01/26 04:59:38;;;;;;;59.25;20.23;;;;;;;0.35;100.00;102056.22;20897284;28;20057;-70
2022/01/26 05:09:40;;;;;;;55.03;19.20;;;;;;;0.46;100.00;102037.94;20896744;28;20053;-70
2022/01/26 05:19:42;;;;;;;45.25;17.48;;;;;;;0.45;100.00;102059.34;20897333;28;20456;-71
2022/01/26 05:29:43;;;;;;;54.47;18.90;;;;;;;0.41;100.00;102046.22;20911969;28;20053;-71
2022/01/26 05:39:45;;;;;;;60.72;20.13;;;;;;;0.37;100.00;102059.75;20910936;28;20103;-71
2022/01/26 05:49:47;;;;;;;59.70;20.50;;;;;;;0.44;100.00;102043.81;20910814;28;20080;-71
2022/01/26 05:59:48;;;;;;;54.38;19.45;;;;;;;0.43;100.00;102029.16;20910065;28;20106;-71
2022/01/26 06:09:50;;;;;;;58.75;19.60;;;;;;;0.43;100.00;102035.22;20904646;28;20045;-70
2022/01/26 06:19:51;;;;;;;59.25;21.50;;;;;;;0.34;100.00;102029.56;20908537;28;20052;-70
2022/01/26 06:29:53;;;;;;;60.05;22.35;;;;;;;0.44;100.00;102030.94;20908645;28;20570;-72
2022/01/26 06:39:55;;;;;;;59.85;21.30;;;;;;;0.31;100.00;102033.69;20901602;28;20099;-71
2022/01/26 06:49:56;;;;;;;56.08;21.30;;;;;;;0.36;100.00;102038.25;20906795;28;20473;-72
2022/01/26 06:59:57;;;;;;;56.97;19.67;;;;;;;0.20;100.00;102044.31;20904563;28;20053;-70
2022/01/26 07:09:59;;;;;;;44.85;17.75;;;;;;;0.12;100.00;102068.78;20898836;28;20052;-71
2022/01/26 07:20:55;;;;;;;43.33;17.88;;;;;;;-0.05;100.00;102085.00;20904026;28;20044;-69
2022/01/26 07:30:30;;;;;;;45.35;17.33;;;;;;;-0.03;100.00;102078.25;20899208;28;20041;-70
2022/01/26 07:40:32;;;;;;;46.40;17.92;;;;;;;0.03;100.00;102109.47;20902159;28;20049;-70
2022/01/26 07:50:34;;;;;;;45.13;16.85;;;;;;;0.07;100.00;102126.88;20905861;28;20111;-70
2022/01/26 08:00:36;;;;;;;34.40;14.85;;;;;;;-0.11;100.00;102115.56;20869525;28;20102;-69
2022/01/26 08:10:38;;;;;;;40.22;15.40;;;;;;;-0.02;100.00;102123.78;20885306;28;20068;-70
2022/01/26 08:20:40;;;;;;;39.70;14.95;;;;;;;-0.05;100.00;102136.47;20896582;28;20053;-69
2022/01/26 08:30:42;;;;;;;35.92;15.75;;;;;;;-0.06;100.00;102125.31;20892228;28;20052;-69
2022/01/26 08:40:45;;;;;;;38.35;15.63;;;;;;;0.05;100.00;102143.03;20837954;28;20045;-69
2022/01/26 08:50:46;;;;;;;41.47;17.33;;;;;;;0.15;100.00;102163.34;20831382;28;20052;-69
2022/01/26 09:00:48;;;;;;;39.78;16.60;;;;;;;0.20;100.00;102137.03;20841282;28;20111;-69
2022/01/26 09:10:56;;;;;;;34.92;14.48;;;;;;;0.14;100.00;102144.41;20884502;28;20049;-70
2022/01/26 09:20:57;;;;;;;31.65;14.05;;;;;;;0.20;100.00;102121.59;20902271;28;20065;-70
2022/01/26 09:30:59;;;;;;;37.47;15.90;;;;;;;0.42;100.00;102125.28;20905934;28;20434;-70
2022/01/26 09:41:01;;;;;;;36.00;15.48;;;;;;;0.60;99.68;102099.59;20901955;28;20284;-70
2022/01/26 09:51:02;;;;;;;41.17;16.30;;;;;;;0.59;99.43;102109.03;20901481;28;20049;-68
2022/01/26 10:01:04;;;;;;;36.53;15.23;;;;;;;0.53;100.00;102103.56;20901563;28;20049;-67
2022/01/26 10:21:21;;;;;;;38.57;16.50;;;;;;;0.61;98.82;102122.88;20901188;28;20395;-68
2022/01/26 10:31:28;;;;;;;34.22;13.90;;;;;;;0.62;99.57;102160.72;20900737;28;20041;-68
2022/01/26 10:41:46;;;;;;;38.72;16.95;;;;;;;0.79;99.37;102153.00;20896599;28;20140;-68
2022/01/26 11:01:49;;;;;;;34.60;14.32;;;;;;;0.85;99.53;102146.47;20897523;28;20107;-68
2022/01/26 11:12:05;;;;;;;33.72;14.40;;;;;;;1.03;98.78;102121.63;20896119;28;20049;-68
2022/01/26 11:22:09;;;;;;;30.00;13.00;;;;;;;1.01;98.23;102127.53;20894509;28;20049;-68
2022/01/26 11:32:33;;;;;;;28.08;12.38;;;;;;;1.02;98.95;102111.25;20890962;28;20041;-68
2022/01/26 11:52:59;;;;;;;23.52;12.88;;;;;;;1.05;99.36;102103.63;20892215;28;20079;-69
2022/01/26 12:03:01;;;;;;;27.63;13.50;;;;;;;1.12;98.35;102105.72;20879524;28;20053;-67
2022/01/26 12:13:09;;;;;;;30.92;14.32;;;;;;;1.23;97.20;102096.81;20886642;28;20052;-68
2022/01/26 12:34:02;;;;;;;30.83;13.20;;;;;;;1.11;98.24;102091.06;20887115;28;20102;-68
2022/01/26 12:44:07;;;;;;;34.25;13.65;;;;;;;1.05;98.26;102103.63;20889537;28;20056;-68
2022/01/26 12:54:09;;;;;;;29.30;13.35;;;;;;;1.18;97.70;102087.97;20890188;28;20496;-68
2022/01/26 13:04:13;;;;;;;28.20;13.10;;;;;;;1.16;96.96;102099.91;20890240;28;20041;-68
2022/01/26 13:14:31;;;;;;;27.30;11.98;;;;;;;1.23;96.18;102096.81;20890134;28;20052;-68
2022/01/26 13:25:12;;;;;;;24.35;11.30;;;;;;;1.08;97.19;102116.69;20888368;28;20407;-68
2022/01/26 14:05:45;;;;;;;22.15;11.23;;;;;;;1.00;95.43;102136.94;20901328;28;20053;-68
2022/01/26 14:15:50;;;;;;;22.92;11.60;;;;;;;1.06;94.66;102154.44;20901088;28;20049;-68
2022/01/26 14:25:55;;;;;;;23.17;11.60;;;;;;;1.06;95.20;102145.81;20897692;28;20051;-68
2022/01/26 16:12:41;;;;;;;27.85;14.95;;;;;;;0.90;94.92;102082.25;20767990;28;20087;-67
2022/01/26 18:13:08;;;;;;;27.40;11.52;;;;;;;0.64;94.93;102099.84;20773492;28;20053;-67
2022/01/26 18:33:10;;;;;;;28.88;13.27;;;;;;;0.71;95.17;102106.19;20772738;28;20049;-67
2022/01/26 18:53:37;;;;;;;;;;;;;;;0.51;95.71;102098.31;20769206;28;20081;-67
2022/01/26 19:03:39;;;;;;;27.48;12.40;;;;;;;0.49;95.90;102093.91;20768685;28;19991;-67
2022/01/26 19:13:43;;;;;;;29.02;11.80;;;;;;;0.50;95.58;102093.09;20781970;28;20114;-68
2022/01/26 19:44:30;;;;;;;32.60;13.02;;;;;;;0.41;96.50;102092.59;20772027;28;20045;-68
2022/01/26 19:54:32;;;;;;;30.83;12.30;;;;;;;0.30;96.90;102098.91;20769061;28;20431;-68
2022/01/26 20:04:34;;;;;;;27.05;11.48;;;;;;;0.34;96.41;102106.00;20778307;28;20054;-68
2022/01/26 20:14:36;;;;;;;26.75;12.40;;;;;;;0.28;96.64;102108.22;20798832;28;20116;-67
2022/01/26 20:24:38;;;;;;;29.25;12.27;;;;;;;0.35;96.56;102108.63;20782689;28;20432;-68
2022/01/26 20:34:39;;;;;;;30.08;11.98;;;;;;;0.43;96.52;102103.88;20767371;28;20064;-69
2022/01/26 20:44:41;;;;;;;46.60;18.67;;;;;;;0.36;96.09;102088.91;20769601;28;20046;-67
2022/01/26 20:54:42;;;;;;;32.00;14.55;;;;;;;0.37;96.43;102080.38;20774176;28;20046;-68
2022/01/26 21:04:44;;;;;;;33.70;13.35;;;;;;;0.36;94.93;102074.31;20782150;28;20057;-67
2022/01/26 21:14:47;;;;;;;30.05;14.20;;;;;;;0.31;96.09;102065.47;20782260;28;20053;-67
2022/01/26 21:24:49;;;;;;;24.10;12.25;;;;;;;0.25;96.06;102081.50;20782388;28;20088;-68
2022/01/26 21:34:51;;;;;;;27.38;11.25;;;;;;;0.31;95.15;102064.59;20779664;28;20087;-68
2022/01/26 21:44:53;;;;;;;23.42;11.23;;;;;;;0.30;96.16;102057.69;20746671;28;20091;-70
2022/01/26 21:54:55;;;;;;;25.15;10.85;;;;;;;0.35;94.75;102028.78;20780462;28;20049;-69
2022/01/26 22:04:56;;;;;;;25.90;11.02;;;;;;;0.27;94.67;102026.59;20778456;28;20521;-69
2022/01/26 22:14:58;;;;;;;25.60;11.73;;;;;;;0.21;95.04;102027.16;20777301;28;20108;-69
2022/01/26 22:24:59;;;;;;;22.85;10.75;;;;;;;0.16;95.61;102005.44;20776536;28;20096;-69
2022/01/26 22:35:01;;;;;;;23.40;10.68;;;;;;;0.09;94.99;101995.59;20774951;28;20054;-70
2022/01/26 22:45:03;;;;;;;25.42;10.88;;;;;;;0.05;94.74;102010.03;20775720;28;20505;-69
2022/01/26 22:55:05;;;;;;;27.77;11.45;;;;;;;-0.06;95.53;102009.44;20775086;28;20054;-70
2022/01/26 23:15:24;;;;;;;31.35;12.18;;;;;;;-0.09;95.61;102000.69;20781909;28;20053;-70
2022/01/26 23:25:41;;;;;;;28.80;10.95;;;;;;;-0.09;95.38;101993.84;20796328;28;20049;-70
